Latest Weather Observations for Keith West

IDS60801

Issued at 12:31 pm CST Thursday 30 June 2016 (issued every 30 minutes, with the page automatically refreshed every 10 minutes)

About weather observations | Map of weather stations | Latest weather observations for SA | Other Formats
Station Details ID: 025557 Name: MUNKORA Lat: -36.11 Lon: 140.33 Height: 27.0 m
Data from the previous 72 hours. | See also: Recent months at Keith West
Date/Time
CST
Temp
°C
App
Temp
°C
Dew
Point
°C
Rel
Hum
%
Delta-T
°C
Wind Press
QNH
hPa
Press
MSL
hPa
Rain since
9am
mm
Dir  Spd
km/h
Gust
km/h
Spd
kts
Gust
kts
30/12:30pm 10.7 3.6 6.5 75 2.0 W 33 44 18 24 1009.7 1009.7 6.4
30/12:16pm 11.2 4.3 7.3 77 1.9 W 33 56 18 30 1009.9 1009.9 6.4
30/12:00pm 10.8 5.2 8.7 87 1.0 W 28 43 15 23 1009.9 1009.9 6.4
30/11:54am 10.4 3.8 7.8 84 1.3 W 32 52 17 28 1010.0 1010.0 6.4
30/11:49am 10.9 5.4 9.0 88 0.9 W 28 52 15 28 1010.2 1010.2 6.2
30/11:30am 11.1 6.9 9.7 91 0.7 WNW 22 28 12 15 1010.0 1010.0 5.4
30/11:00am 10.8 7.0 9.2 90 0.8 NW 19 26 10 14 1010.4 1010.4 4.6
30/10:30am 11.0 5.2 9.3 89 0.9 WNW 30 41 16 22 1010.3 1010.3 3.6
30/10:00am 12.5 5.5 8.4 76 2.0 NNW 35 46 19 25 1009.2 1009.2 0.0
30/09:30am 12.2 5.2 8.3 77 1.9 NNW 35 48 19 26 1009.4 1009.4 0.0
30/09:00am 11.0 4.1 7.3 78 1.8 NNW 33 44 18 24 1009.7 1009.7 0.4
30/08:30am 9.9 3.4 6.6 80 1.5 NNW 30 37 16 20 1009.4 1009.4 0.4
30/08:00am 10.0 3.8 6.3 78 1.7 NNW 28 37 15 20 1009.4 1009.4 0.4
30/07:30am 9.5 3.2 5.9 78 1.7 N 28 35 15 19 1009.2 1009.2 0.4
30/07:00am 9.7 3.4 5.7 76 1.8 N 28 37 15 20 1009.1 1009.1 0.4
30/06:30am 9.2 3.3 5.6 78 1.6 N 26 35 14 19 1009.4 1009.4 0.4
30/06:00am 9.0 3.4 5.4 78 1.6 N 24 33 13 18 1009.4 1009.4 0.4
30/05:30am 8.8 3.2 5.2 78 1.6 N 24 32 13 17 1009.5 1009.5 0.4
30/05:00am 8.9 3.3 5.3 78 1.6 N 24 32 13 17 1009.5 1009.5 0.4
30/04:30am 9.2 3.3 5.6 78 1.6 N 26 33 14 18 1009.7 1009.7 0.4
30/04:00am 9.6 2.4 6.0 78 1.7 N 33 43 18 23 1010.0 1010.0 0.4
30/03:30am 9.4 3.1 5.9 79 1.6 N 28 41 15 22 1010.5 1010.5 0.4
30/03:00am 9.9 4.0 5.7 75 1.9 N 26 37 14 20 1011.3 1011.3 0.0
30/02:30am 9.9 4.3 5.3 73 2.1 N 24 32 13 17 1012.0 1012.0 0.0
30/02:00am 10.3 3.8 4.7 68 2.5 N 28 39 15 21 1012.5 1012.5 0.0
30/01:30am 10.5 3.6 4.4 66 2.7 N 30 37 16 20 1012.6 1012.6 0.0
30/01:00am 10.6 4.1 4.5 66 2.7 N 28 39 15 21 1012.8 1012.8 0.0
30/12:30am 10.4 3.8 4.3 66 2.7 N 28 37 15 20 1013.3 1013.3 0.0
30/12:00am 10.4 4.2 4.3 66 2.7 N 26 33 14 18 1013.9 1013.9 0.0
 
Date/Time
CST
Temp
°C
App
Temp
°C
Dew
Point
°C
Rel
Hum
%
Delta-T
°C
Wind Press
QNH
hPa
Press
MSL
hPa
Rain since
9am
mm
Dir  Spd
km/h
Gust
km/h
Spd
kts
Gust
kts
29/11:30pm 10.7 5.6 4.2 64 2.9 N 20 30 11 16 1014.5 1014.5 0.0
29/11:00pm 10.8 4.9 4.0 63 3.0 N 24 35 13 19 1015.1 1015.1 0.0
29/10:30pm 10.5 5.4 4.2 65 2.8 N 20 30 11 16 1015.2 1015.2 0.0
29/10:00pm 10.2 4.8 4.6 68 2.5 N 22 32 12 17 1015.4 1015.4 0.0
29/09:30pm 10.1 5.1 4.7 69 2.4 N 20 30 11 16 1015.8 1015.8 0.0
29/09:00pm 9.6 4.3 4.8 72 2.1 N 22 28 12 15 1016.3 1016.3 0.0
29/08:30pm 8.9 4.5 4.9 76 1.8 N 17 19 9 10 1017.1 1017.1 0.0
29/08:00pm 9.1 5.4 4.7 74 2.0 N 13 15 7 8 1017.7 1017.7 0.0
29/07:30pm 10.4 6.8 5.0 69 2.4 N 13 17 7 9 1018.0 1018.0 0.0
29/07:00pm 10.9 7.3 4.8 66 2.8 N 13 17 7 9 1018.0 1018.0 0.0
29/06:30pm 11.2 6.8 4.7 64 2.9 N 17 19 9 10 1017.9 1017.9 0.0
29/06:00pm 11.6 6.7 4.3 61 3.3 N 19 24 10 13 1018.2 1018.2 0.0
29/05:30pm 12.2 6.3 3.9 57 3.7 N 24 32 13 17 1018.0 1018.0 0.0
29/05:00pm 12.1 6.2 4.1 58 3.6 N 24 33 13 18 1018.2 1018.2 0.0
29/04:30pm 12.6 5.9 3.8 55 3.9 N 28 35 15 19 1018.3 1018.4 0.0
29/04:00pm 12.8 5.3 3.5 53 4.2 N 32 44 17 24 1018.5 1018.6 0.0
29/03:30pm 13.5 6.2 4.4 54 4.2 N 32 44 17 24 1018.6 1018.7 0.0
29/03:00pm 13.5 5.9 3.8 52 4.4 N 33 43 18 23 1018.9 1019.0 0.0
29/02:30pm 13.7 5.3 3.8 51 4.5 N 37 46 20 25 1019.4 1019.5 0.0
29/02:00pm 13.8 6.5 4.4 53 4.3 N 32 43 17 23 1019.9 1020.0 0.0
29/01:30pm 14.0 7.2 5.1 55 4.1 N 30 39 16 21 1020.5 1020.6 0.0
29/01:00pm 13.8 7.5 5.9 59 3.8 NNW 28 39 15 21 1021.2 1021.3 0.0
29/12:30pm 13.6 7.9 6.5 62 3.4 NNW 26 35 14 19 1022.0 1022.1 0.0
29/12:00pm 13.8 7.8 6.9 63 3.3 N 28 37 15 20 1022.6 1022.7 0.0
29/11:30am 13.3 7.9 6.4 63 3.3 N 24 32 13 17 1023.3 1023.4 0.0
29/11:00am 12.5 8.0 7.0 69 2.6 N 20 24 11 13 1024.0 1024.1 0.0
29/10:30am 11.4 7.7 6.3 71 2.4 N 15 22 8 12 1024.4 1024.5 0.0
29/10:00am 10.0 5.8 5.6 74 2.0 N 17 20 9 11 1024.8 1024.9 0.0
29/09:30am 7.9 3.9 4.8 81 1.4 N 15 19 8 10 1025.1 1025.2 0.0
29/09:00am 6.9 3.2 4.2 83 1.2 NNE 13 17 7 9 1025.3 1025.4 0.0
29/08:30am 5.8 1.9 3.6 86 0.9 NNE 13 15 7 8 1025.3 1025.4 0.0
29/08:00am 5.3 1.8 3.5 88 0.8 NE 11 13 6 7 1025.3 1025.4 0.0
29/07:30am 5.2 1.6 3.2 87 0.8 NNE 11 15 6 8 1025.3 1025.4 0.0
29/07:00am 5.5 2.1 4.2 91 0.6 NNE 11 13 6 7 1025.1 1025.2 0.0
29/06:30am 5.0 1.9 3.5 90 0.6 NNE 9 11 5 6 1025.0 1025.1 0.0
29/06:00am 5.9 2.5 4.2 89 0.7 NNE 11 15 6 8 1025.0 1025.1 0.0
29/05:30am 5.9 2.6 4.5 91 0.6 NNE 11 13 6 7 1025.0 1025.1 0.0
29/05:00am 5.1 2.0 3.8 91 0.5 NNE 9 11 5 6 1024.9 1025.0 0.0
29/04:30am 5.1 2.4 3.6 90 0.6 NNE 7 9 4 5 1024.9 1025.0 0.0
29/04:00am 5.6 2.6 4.2 91 0.6 NNE 9 13 5 7 1024.8 1024.9 0.0
29/03:30am 5.6 2.3 4.4 92 0.5 NNE 11 13 6 7 1025.1 1025.2 0.0
29/03:00am 4.8 1.7 3.5 91 0.5 NNE 9 11 5 6 1025.1 1025.2 0.0
29/02:30am 5.0 2.3 3.8 92 0.5 NNE 7 9 4 5 1025.3 1025.4 0.0
29/02:00am 4.6 1.8 3.3 91 0.5 NNE 7 9 4 5 1025.4 1025.5 0.0
29/01:30am 5.5 2.5 4.2 91 0.5 NNE 9 11 5 6 1025.4 1025.5 0.0
29/01:00am 5.9 3.0 4.5 91 0.6 NNE 9 11 5 6 1025.5 1025.6 0.0
29/12:30am 5.6 3.0 4.2 91 0.6 N 7 9 4 5 1025.9 1026.0 0.0
29/12:00am 5.5 2.9 4.0 90 0.6 NNE 7 9 4 5 1026.1 1026.2 0.0
 
Date/Time
CST
Temp
°C
App
Temp
°C
Dew
Point
°C
Rel
Hum
%
Delta-T
°C
Wind Press
QNH
hPa
Press
MSL
hPa
Rain since
9am
mm
Dir  Spd
km/h
Gust
km/h
Spd
kts
Gust
kts
28/11:30pm 5.8 3.2 4.1 89 0.7 N 7 9 4 5 1026.3 1026.4 0.0
28/11:00pm 6.6 4.3 4.9 89 0.7 N 6 6 3 3 1026.3 1026.4 0.0
28/10:30pm 6.5 4.0 4.8 89 0.7 N 7 9 4 5 1026.3 1026.4 0.0
28/10:00pm 6.7 4.2 4.9 88 0.8 N 7 9 4 5 1026.4 1026.5 0.0
28/09:30pm 7.1 3.9 5.3 88 0.8 N 11 13 6 7 1026.4 1026.5 0.0
28/09:00pm 7.3 4.6 5.6 89 0.8 N 9 11 5 6 1026.3 1026.4 0.0
28/08:30pm 7.4 4.3 5.4 87 0.9 N 11 13 6 7 1026.4 1026.5 0.0
28/08:00pm 8.5 6.4 6.6 88 0.9 N 7 9 4 5 1026.3 1026.4 0.0
28/07:30pm 8.1 5.8 5.9 86 1.0 N 7 9 4 5 1026.3 1026.4 0.0
28/07:00pm 8.9 6.8 6.7 86 1.0 N 7 9 4 5 1026.1 1026.2 0.0
28/06:30pm 10.1 8.0 6.8 80 1.5 N 7 7 4 4 1025.8 1025.9 0.0
28/06:00pm 10.0 8.1 7.4 84 1.2 NNW 7 7 4 4 1025.7 1025.8 0.0
28/05:30pm 10.1 8.1 7.0 81 1.5 NNW 7 9 4 5 1025.4 1025.5 0.0
28/05:00pm 12.3 9.7 7.8 74 2.2 NW 11 13 6 7 1025.2 1025.3 0.0
28/04:30pm 13.7 10.5 8.3 70 2.7 WNW 15 19 8 10 1025.2 1025.3 0.0
28/04:00pm 15.1 11.1 8.3 64 3.4 WNW 19 26 10 14 1024.9 1025.0 0.0
28/03:30pm 15.4 10.5 8.4 63 3.5 WNW 24 30 13 16 1024.9 1025.0 0.0
28/03:00pm 15.7 10.8 8.4 62 3.7 WNW 24 32 13 17 1024.8 1024.9 0.0
28/02:30pm 15.9 11.2 9.1 64 3.5 WNW 24 32 13 17 1024.7 1024.8 0.0
28/02:00pm 16.0 12.1 10.7 71 2.8 WNW 22 32 12 17 1024.8 1024.9 0.0
28/01:30pm 15.3 10.8 10.1 71 2.7 NW 24 30 13 16 1025.0 1025.1 0.0
28/01:00pm 15.1 10.2 10.1 72 2.6 WNW 26 33 14 18 1025.1 1025.2 0.0
28/12:30pm 15.1 10.7 10.5 74 2.4 WNW 24 32 13 17 1025.3 1025.4 0.0
28/12:00pm 15.1 10.8 10.7 75 2.3 WNW 24 33 13 18 1025.3 1025.4 0.0
28/11:30am 14.6 10.6 10.6 77 2.1 NW 22 32 12 17 1025.6 1025.7 0.0
28/11:00am 13.9 9.9 10.5 80 1.8 NW 22 28 12 15 1025.8 1025.9 0.0
28/10:30am 12.9 9.1 9.7 81 1.6 NW 20 28 11 15 1025.9 1026.0 0.0
28/10:00am 11.9 7.9 9.1 83 1.4 NW 20 28 11 15 1025.8 1025.9 0.0
28/09:30am 10.7 6.7 8.1 84 1.3 NW 19 24 10 13 1025.6 1025.7 0.0
28/09:00am 9.9 6.2 7.8 87 1.0 NNW 17 20 9 11 1025.5 1025.6 0.2
28/08:30am 8.5 4.5 6.6 88 0.9 NNW 17 20 9 11 1025.1 1025.2 0.2
28/08:00am 7.7 4.7 6.2 90 0.7 NNW 11 15 6 8 1024.8 1024.9 0.2
28/07:30am 7.5 4.1 5.8 89 0.8 NNW 13 17 7 9 1024.6 1024.7 0.2
28/07:00am 8.0 4.3 6.3 89 0.8 NNW 15 19 8 10 1024.3 1024.4 0.2
28/06:30am 7.9 4.2 6.2 89 0.8 NNW 15 20 8 11 1023.9 1024.0 0.2
28/06:00am 7.8 4.4 6.1 89 0.8 NNW 13 17 7 9 1023.4 1023.5 0.2
28/05:30am 7.9 4.2 6.2 89 0.8 NNW 15 17 8 9 1023.3 1023.4 0.2
28/05:00am 8.0 4.3 6.3 89 0.8 NNW 15 19 8 10 1023.0 1023.1 0.2
28/04:30am 7.7 3.9 6.0 89 0.8 NNW 15 17 8 9 1022.8 1022.9 0.2
28/04:00am 7.3 3.5 5.6 89 0.8 N 15 19 8 10 1022.6 1022.7 0.2
28/03:30am 7.0 2.7 5.3 89 0.7 N 17 20 9 11 1022.9 1023.0 0.2
28/03:00am 6.6 2.6 4.9 89 0.7 NNW 15 17 8 9 1023.0 1023.1 0.2
28/02:30am 7.1 4.0 5.4 89 0.8 NNW 11 15 6 8 1023.1 1023.2 0.2
28/02:00am 7.2 3.3 5.3 88 0.8 NNW 15 19 8 10 1023.1 1023.2 0.2
28/01:30am 6.9 3.3 5.1 88 0.8 NNW 13 17 7 9 1022.9 1023.0 0.2
28/01:00am 6.9 3.3 4.9 87 0.9 NNW 13 15 7 8 1022.7 1022.8 0.2
28/12:30am 7.3 3.8 5.3 87 0.9 NNW 13 15 7 8 1022.7 1022.8 0.2
28/12:00am 7.0 3.8 5.0 87 0.9 NNW 11 13 6 7 1022.8 1022.9 0.2
 
Date/Time
CST
Temp
°C
App
Temp
°C
Dew
Point
°C
Rel
Hum
%
Delta-T
°C
Wind Press
QNH
hPa
Press
MSL
hPa
Rain since
9am
mm
Dir  Spd
km/h
Gust
km/h
Spd
kts
Gust
kts
27/11:30pm 7.4 4.3 5.5 88 0.8 NNW 11 13 6 7 1023.0 1023.1 0.2
27/11:00pm 7.5 4.1 5.8 89 0.8 NNW 13 15 7 8 1022.9 1023.0 0.2
27/10:30pm 6.6 3.4 5.1 90 0.7 N 11 13 6 7 1022.9 1023.0 0.2
27/10:00pm 7.1 4.0 5.7 91 0.6 N 11 11 6 6 1022.7 1022.8 0.2
27/09:30pm 6.9 3.7 5.2 89 0.7 NNW 11 11 6 6 1022.7 1022.8 0.2
27/09:00pm 7.0 3.8 5.3 89 0.7 N 11 13 6 7 1022.5 1022.6 0.2
27/08:30pm 7.6 4.5 5.6 87 0.9 NNW 11 11 6 6 1022.4 1022.5 0.2
27/08:00pm 8.3 6.1 6.1 86 1.0 NNW 7 9 4 5 1022.3 1022.4 0.2
27/07:30pm 9.4 8.4 7.2 86 1.0 WNW 2 4 1 2 1022.1 1022.2 0.2
27/07:00pm 9.0 7.1 6.8 86 1.0 NW 6 7 3 4 1021.9 1022.0 0.2
27/06:30pm 9.3 6.5 6.9 85 1.1 WNW 11 13 6 7 1021.6 1021.7 0.2
27/06:00pm 8.7 6.4 5.8 82 1.3 NW 7 9 4 5 1021.1 1021.2 0.2
27/05:30pm 9.6 8.3 6.0 78 1.7 WSW 2 4 1 2 1020.9 1021.0 0.2
27/05:00pm 12.0 10.6 7.1 72 2.4 S 4 6 2 3 1020.6 1020.7 0.2
27/04:30pm 13.1 10.1 6.2 63 3.3 WSW 11 15 6 8 1020.3 1020.4 0.2
27/04:00pm 13.2 9.5 6.5 64 3.2 W 15 20 8 11 1020.0 1020.1 0.2
27/03:30pm 14.4 11.7 5.7 56 4.1 W 9 19 5 10 1019.9 1020.0 0.2
27/03:00pm 14.2 12.3 7.7 65 3.2 WNW 7 11 4 6 1019.7 1019.8 0.2
27/02:30pm 14.0 12.1 7.5 65 3.2 W 7 9 4 5 1019.6 1019.7 0.2
27/02:00pm 13.3 10.6 7.3 67 2.9 WNW 11 15 6 8 1019.6 1019.7 0.2
27/01:30pm 13.1 10.8 7.5 69 2.7 WSW 9 13 5 7 1019.7 1019.8 0.2
27/01:00pm 12.5 9.0 7.4 71 2.5 WSW 15 20 8 11 1019.9 1020.0 0.2

Other Formats:

Comma delimited format used in spreadsheet applications
http://www.bom.gov.au/fwo/IDS60801/IDS60801.95815.axf

JavaScript Object Notation format (JSON) in row-major order
http://www.bom.gov.au/fwo/IDS60801/IDS60801.95815.json